Spencer, IN

9:06 AM EDT on April 28, 2015 (GMT -0400)
GosportINWX | | Change Station
CLOSE
Current Station
Personal Weather Station
Location: Gosport, IN
Elevation: 751 ft
Nearby Weather Stations

Elev 751 ft 39.30 °N, 86.70 °W | Updated 10 seconds ago

Clear
Clear
47.8 °F
Feels Like 46 °F
N
4.1
Wind Variable Wind from North
Gusts 7.9 mph

Today
High -- | Low -- °F
--% Chance of Precip.
Yesterday
High -- | Low -- °F
Precip. -- in
6:52 AM 8:37 PM
Waxing Gibbous, 73% visible
Pressure 30.14 in
Visibility 10.0 miles
Clouds Clear
Windchill 46 °F
Dew Point 41 °F
Humidity 77%
Rainfall 0.00 in
Snow Depth Not available.
UV 2 out of 12
Pollen 10.40 out of 12
Air Quality Not available.
Flu Activity Local Activity
METAR KBMG 281253Z 07005KT 10SM CLR 08/03 A3013 RMK AO2 SLP204 T00830033

More Conditions Fewer Conditions

Pressure 30.14 in
Visibility 10.0 miles
Clouds Clear
Windchill 46 °F
Dew Point 41 °F
Humidity 77%
Rainfall 0.00 in
Snow Depth Not available.
UV 2 out of 12
Pollen 10.40 out of 12
Air Quality Not available.
Flu Activity Local Activity
METAR KBMG 281253Z 07005KT 10SM CLR 08/03 A3013 RMK AO2 SLP204 T00830033

More Conditions Fewer Conditions

10-Day Weather Forecast

Almanac

Astronomy

Apr. 28, 2015 Rise Set
Actual Time
Civil Twilight
Nautical Twilight
Astronomical Twilight
Moon
Length of Visible Light
Length of Day
Tomorrow will be .
, % of the Moon is Illuminated

Today's Extremes

State Highs State Lows

Community

WunderPhotos

Upload Photos

1,817,621 photos uploaded!

WunderBlogs® & News

Nearby

Air Quality

  Air Quality AQ Index Pollutant
Not available.

Snow Depth

Station Depth Elevation

Earthquake Activity

City Distance Mag. Time & Date
Minimum magnitude displayed is 2.5.

Coastal Water Temperatures

Place Temperature

Stations

Nearby Weather Stations

Station Location Temp. Windchill Dew Point Humidity Wind Precip. Elev Updated Type